Time;durP1;ratioP1;P1;durP2;ratioP2;P2;SDS_P1;SDS_P2;PMS_P1;PMS_P2;Temp;Humidity;BMP_temperature;BMP_pressure;BME280_temperature;BME280_humidity;BME280_pressure;Samples;Min_cycle;Max_cycle;Signal;HPM_P1;HPM_P2
2023/09/16 00:00:43;;;;;;;9.93;6.60;;;14.90;99.90;;;;;;497543;239;28694;-74
2023/09/16 00:02:54;;;;;;;7.77;6.73;;;14.90;99.90;;;;;;497532;239;28805;-73
2023/09/16 00:04:55;;;;;;;7.70;6.90;;;14.80;99.90;;;;;;497514;239;28790;-73
2023/09/16 00:06:57;;;;;;;7.80;6.80;;;14.80;99.90;;;;;;497494;239;28746;-73
2023/09/16 00:08:58;;;;;;;7.60;6.80;;;14.80;99.90;;;;;;497512;239;28797;-78
2023/09/16 00:11:12;;;;;;;6.87;6.17;;;14.70;99.90;;;;;;497486;239;28797;-76
2023/09/16 00:13:13;;;;;;;7.93;7.00;;;14.70;99.90;;;;;;497473;239;28735;-76
2023/09/16 00:15:21;;;;;;;7.73;6.93;;;14.70;99.90;;;;;;497486;239;28840;-75
2023/09/16 00:17:37;;;;;;;9.63;7.23;;;14.70;99.90;;;;;;497472;239;28721;-74
2023/09/16 00:19:38;;;;;;;6.00;5.40;;;14.60;99.90;;;;;;497488;239;28706;-76
2023/09/16 00:23:52;;;;;;;13.30;6.70;;;14.50;99.90;;;;;;497511;239;28677;-74
2023/09/16 00:25:59;;;;;;;7.40;6.70;;;14.50;99.90;;;;;;497478;239;29225;-73
2023/09/16 00:28:00;;;;;;;7.20;6.50;;;14.50;99.90;;;;;;497555;239;28708;-75
2023/09/16 00:30:19;;;;;;;7.80;7.00;;;14.50;99.90;;;;;;497532;239;28753;-76
2023/09/16 00:32:21;;;;;;;10.90;7.87;;;14.50;99.90;;;;;;497553;239;28862;-74
2023/09/16 00:34:34;;;;;;;7.80;7.00;;;14.50;99.90;;;;;;497539;239;28826;-75
2023/09/16 00:36:35;;;;;;;8.40;7.50;;;14.40;99.90;;;;;;497526;239;28737;-73
2023/09/16 00:38:40;;;;;;;8.47;6.43;;;14.40;99.90;;;;;;497512;239;28718;-73
2023/09/16 00:40:41;;;;;;;9.10;7.10;;;14.40;99.90;;;;;;497525;239;28712;-75
2023/09/16 00:42:49;;;;;;;7.13;6.30;;;14.40;99.90;;;;;;497512;239;28766;-73
2023/09/16 00:44:50;;;;;;;7.23;6.43;;;14.30;99.90;;;;;;497556;239;28689;-71
2023/09/16 00:46:54;;;;;;;11.27;7.70;;;14.40;99.90;;;;;;497503;239;28201;-74
2023/09/16 00:48:56;;;;;;;7.70;6.80;;;14.40;99.90;;;;;;497507;239;28719;-75
2023/09/16 00:50:57;;;;;;;7.07;6.40;;;14.30;99.90;;;;;;497548;239;28928;-77
2023/09/16 00:53:03;;;;;;;8.40;7.50;;;14.30;99.90;;;;;;497559;239;28910;-75
2023/09/16 00:54:59;;;;;;;8.50;6.80;;;14.30;99.90;;;;;;497397;239;29677;-74
2023/09/16 00:57:04;;;;;;;7.50;6.80;;;14.30;99.90;;;;;;497486;239;29178;-74
2023/09/16 00:59:05;;;;;;;6.80;6.10;;;14.30;99.90;;;;;;497481;239;28677;-73
2023/09/16 01:01:09;;;;;;;10.40;8.07;;;14.30;99.90;;;;;;497516;239;28404;-74
2023/09/16 01:03:10;;;;;;;7.60;6.70;;;14.30;99.90;;;;;;497519;239;28671;-73
2023/09/16 01:05:21;;;;;;;12.30;7.70;;;14.20;99.90;;;;;;497465;239;28363;-75
2023/09/16 01:07:22;;;;;;;9.53;7.30;;;14.20;99.90;;;;;;497440;239;28235;-77
2023/09/16 01:09:26;;;;;;;7.63;6.70;;;14.20;99.90;;;;;;497450;239;28797;-73
2023/09/16 01:11:27;;;;;;;8.10;7.37;;;14.20;99.90;;;;;;497425;239;28528;-74
2023/09/16 01:13:38;;;;;;;7.67;6.87;;;14.20;99.90;;;;;;497495;239;28381;-75
2023/09/16 01:15:39;;;;;;;8.07;7.27;;;14.20;99.90;;;;;;497494;239;28472;-80
2023/09/16 01:17:47;;;;;;;9.23;7.20;;;14.20;99.90;;;;;;497493;239;28418;-74
2023/09/16 01:19:48;;;;;;;8.10;7.30;;;14.20;99.90;;;;;;497481;239;28401;-72
2023/09/16 01:21:52;;;;;;;11.53;7.13;;;14.10;99.90;;;;;;497454;239;28291;-74
2023/09/16 01:23:53;;;;;;;7.73;6.90;;;14.10;99.90;;;;;;497491;239;28790;-75
2023/09/16 01:25:54;;;;;;;7.57;6.40;;;14.10;99.90;;;;;;497482;239;28224;-74
2023/09/16 01:28:01;;;;;;;8.17;6.90;;;14.10;99.90;;;;;;497463;239;28877;-75
2023/09/16 01:30:02;;;;;;;7.97;7.17;;;14.10;99.90;;;;;;497449;239;28424;-75
2023/09/16 01:32:10;;;;;;;8.63;7.17;;;14.10;99.90;;;;;;497452;239;28536;-74
2023/09/16 01:34:11;;;;;;;6.80;6.20;;;14.10;99.90;;;;;;497559;239;28391;-73
2023/09/16 01:38:23;;;;;;;8.87;7.20;;;14.10;99.90;;;;;;497501;239;28820;-74
2023/09/16 01:40:23;;;;;;;7.00;6.40;;;14.10;99.90;;;;;;497461;239;28371;-74
2023/09/16 01:42:25;;;;;;;7.33;6.60;;;14.10;99.90;;;;;;497477;239;29224;-75
2023/09/16 01:44:27;;;;;;;8.60;6.40;;;14.10;99.90;;;;;;497533;239;28878;-73
2023/09/16 01:46:28;;;;;;;8.57;6.90;;;14.00;99.90;;;;;;497464;239;28399;-75
2023/09/16 01:48:35;;;;;;;8.13;7.30;;;14.00;99.90;;;;;;497470;239;28724;-73
2023/09/16 01:50:36;;;;;;;8.40;7.17;;;14.00;99.90;;;;;;497502;239;28411;-76
2023/09/16 01:52:38;;;;;;;7.57;6.83;;;14.00;99.90;;;;;;497447;239;28313;-74
2023/09/16 01:54:39;;;;;;;7.90;7.10;;;14.00;99.90;;;;;;497490;239;28758;-74
2023/09/16 01:56:41;;;;;;;7.67;6.87;;;13.90;99.90;;;;;;497486;239;28906;-74
2023/09/16 01:58:42;;;;;;;7.40;6.30;;;13.90;99.90;;;;;;497483;239;28426;-73
2023/09/16 02:00:48;;;;;;;7.93;7.10;;;13.80;99.90;;;;;;497438;239;28324;-74
2023/09/16 02:02:49;;;;;;;7.70;6.47;;;13.80;99.90;;;;;;497470;239;28406;-73
2023/09/16 02:04:56;;;;;;;7.00;6.30;;;13.80;99.90;;;;;;497501;239;29269;-73
2023/09/16 02:06:57;;;;;;;8.23;6.77;;;13.80;99.90;;;;;;497439;239;28420;-73
2023/09/16 02:08:59;;;;;;;7.70;6.53;;;13.80;99.90;;;;;;497391;239;28450;-73
2023/09/16 02:11:00;;;;;;;7.93;6.60;;;13.70;99.90;;;;;;497498;239;28773;-72
2023/09/16 02:13:01;;;;;;;7.97;6.40;;;13.80;99.90;;;;;;497405;239;28839;-73
2023/09/16 02:15:04;;;;;;;7.17;6.47;;;13.80;99.90;;;;;;497498;239;28742;-73
2023/09/16 02:17:04;;;;;;;8.57;7.70;;;13.80;99.90;;;;;;497466;239;28283;-73
2023/09/16 02:19:05;;;;;;;8.00;7.20;;;13.80;99.90;;;;;;497520;239;28357;-74
2023/09/16 02:21:07;;;;;;;7.73;6.93;;;13.80;99.90;;;;;;497548;239;28487;-72
2023/09/16 02:23:08;;;;;;;7.80;7.00;;;13.80;99.90;;;;;;497488;239;28274;-73
2023/09/16 02:25:12;;;;;;;8.57;7.40;;;13.80;99.90;;;;;;497505;239;28874;-73
2023/09/16 02:27:13;;;;;;;8.83;6.90;;;13.80;99.90;;;;;;497532;239;28303;-75
2023/09/16 02:29:27;;;;;;;8.53;7.43;;;13.80;99.90;;;;;;497528;239;28432;-74
2023/09/16 02:31:28;;;;;;;7.37;6.67;;;13.80;99.90;;;;;;497511;239;28182;-71
2023/09/16 02:33:29;;;;;;;7.97;7.17;;;13.80;99.90;;;;;;497519;239;28400;-73
2023/09/16 02:35:31;;;;;;;8.30;7.40;;;13.80;99.90;;;;;;497518;239;28313;-74
2023/09/16 02:37:35;;;;;;;9.20;7.70;;;13.80;99.90;;;;;;497490;239;28426;-73
2023/09/16 02:39:36;;;;;;;8.83;7.83;;;13.80;99.90;;;;;;497485;239;28341;-73
2023/09/16 02:41:39;;;;;;;11.53;7.70;;;13.80;99.90;;;;;;497530;239;28809;-73
2023/09/16 02:43:39;;;;;;;9.70;8.23;;;13.70;99.90;;;;;;497471;239;28899;-75
2023/09/16 02:45:46;;;;;;;8.87;7.97;;;13.70;99.90;;;;;;497501;239;28848;-74
2023/09/16 02:47:47;;;;;;;8.70;7.80;;;13.70;99.90;;;;;;497495;239;28726;-72
2023/09/16 02:49:58;;;;;;;8.70;7.40;;;13.70;99.90;;;;;;497519;239;28551;-75
2023/09/16 02:51:59;;;;;;;8.93;7.40;;;13.70;99.90;;;;;;497503;239;28408;-75
2023/09/16 02:54:01;;;;;;;8.50;7.17;;;13.60;99.90;;;;;;497476;239;28257;-73
2023/09/16 02:56:02;;;;;;;9.50;7.47;;;13.60;99.90;;;;;;497498;239;28924;-73
2023/09/16 02:58:10;;;;;;;8.40;7.50;;;13.60;99.90;;;;;;497500;239;28905;-73
2023/09/16 03:00:11;;;;;;;8.97;7.97;;;13.60;99.90;;;;;;497491;239;28191;-75
2023/09/16 03:02:12;;;;;;;11.50;8.53;;;13.60;99.90;;;;;;497455;239;28342;-73
2023/09/16 03:04:14;;;;;;;12.23;8.03;;;13.50;99.90;;;;;;497477;239;28965;-74
2023/09/16 03:06:18;;;;;;;9.40;7.30;;;13.50;99.90;;;;;;497516;239;28906;-72
2023/09/16 03:08:19;;;;;;;8.07;7.27;;;13.50;99.90;;;;;;497496;239;28393;-74
2023/09/16 03:10:29;;;;;;;8.30;6.67;;;13.50;99.90;;;;;;497506;239;28282;-74
2023/09/16 03:12:31;;;;;;;8.00;7.20;;;13.50;99.90;;;;;;497498;239;28366;-74
2023/09/16 03:14:32;;;;;;;8.73;7.87;;;13.50;99.90;;;;;;497508;239;28186;-73
2023/09/16 03:16:36;;;;;;;9.43;7.70;;;13.50;99.90;;;;;;497493;239;28993;-74
2023/09/16 03:18:38;;;;;;;8.50;7.60;;;13.50;99.90;;;;;;497500;239;28539;-73
2023/09/16 03:20:39;;;;;;;8.70;7.80;;;13.50;99.90;;;;;;497478;239;28272;-76
2023/09/16 03:22:41;;;;;;;9.40;8.40;;;13.50;99.90;;;;;;497488;239;28953;-74
2023/09/16 03:24:43;;;;;;;9.17;8.27;;;13.50;99.90;;;;;;497507;239;28362;-74
2023/09/16 03:26:44;;;;;;;9.07;8.00;;;13.50;99.90;;;;;;497483;239;28224;-74
2023/09/16 03:28:48;;;;;;;9.73;8.70;;;13.40;99.90;;;;;;497482;239;28391;-74
2023/09/16 03:30:49;;;;;;;8.77;7.67;;;13.40;99.90;;;;;;497490;239;28279;-73
2023/09/16 03:32:50;;;;;;;9.50;8.60;;;13.40;99.90;;;;;;497513;239;28393;-73
2023/09/16 03:34:57;;;;;;;8.97;7.87;;;13.40;99.90;;;;;;497525;239;28194;-73
2023/09/16 03:36:59;;;;;;;9.40;7.83;;;13.40;99.90;;;;;;497508;239;28375;-73
2023/09/16 03:41:04;;;;;;;13.20;7.70;;;13.40;99.90;;;;;;497502;239;28181;-73
2023/09/16 03:43:09;;;;;;;8.20;7.40;;;13.40;99.90;;;;;;497516;239;28820;-73
2023/09/16 03:45:11;;;;;;;10.10;7.50;;;13.40;99.90;;;;;;497530;239;28743;-72
2023/09/16 03:47:14;;;;;;;8.77;7.83;;;13.40;99.90;;;;;;497458;239;28383;-74
2023/09/16 03:49:15;;;;;;;11.13;8.20;;;13.40;99.90;;;;;;497412;239;28245;-74
2023/09/16 03:53:25;;;;;;;8.10;7.23;;;13.40;99.90;;;;;;497522;239;28770;-73
2023/09/16 03:55:23;;;;;;;11.10;7.93;;;13.40;99.90;;;;;;497476;239;28372;-75
2023/09/16 03:57:25;;;;;;;8.30;7.50;;;13.40;99.90;;;;;;497536;239;28427;-73
2023/09/16 03:59:26;;;;;;;8.77;7.33;;;13.40;99.90;;;;;;497575;239;28620;-73
2023/09/16 04:01:27;;;;;;;8.80;7.80;;;13.40;99.90;;;;;;497542;239;28378;-73
2023/09/16 04:03:28;;;;;;;8.73;7.87;;;13.40;99.90;;;;;;497466;239;28382;-73
2023/09/16 04:05:30;;;;;;;11.20;8.20;;;13.40;99.90;;;;;;497534;239;28309;-74
2023/09/16 04:07:31;;;;;;;8.43;7.53;;;13.30;99.90;;;;;;497550;239;28068;-73
2023/09/16 04:09:35;;;;;;;8.10;7.07;;;13.30;99.90;;;;;;497521;239;28677;-73
2023/09/16 04:11:37;;;;;;;8.13;7.33;;;13.20;99.90;;;;;;497521;239;28092;-73
2023/09/16 04:13:42;;;;;;;7.60;6.80;;;13.20;99.90;;;;;;497507;239;28227;-73
2023/09/16 04:15:43;;;;;;;7.20;6.50;;;13.20;99.90;;;;;;497493;239;28221;-74
2023/09/16 04:17:47;;;;;;;8.07;6.70;;;13.20;99.90;;;;;;497488;239;28048;-73
2023/09/16 04:19:48;;;;;;;8.10;7.10;;;13.20;99.90;;;;;;497537;239;28217;-79
2023/09/16 04:21:55;;;;;;;7.10;6.50;;;13.20;99.90;;;;;;497537;239;28075;-75
2023/09/16 04:23:56;;;;;;;7.60;6.90;;;13.20;99.90;;;;;;497561;239;28186;-73
2023/09/16 04:26:13;;;;;;;6.70;6.10;;;13.20;99.90;;;;;;497538;239;28186;-74
2023/09/16 04:28:11;;;;;;;7.33;6.17;;;13.10;99.90;;;;;;497519;239;28205;-73
2023/09/16 04:30:15;;;;;;;8.00;7.20;;;13.10;99.90;;;;;;497514;239;28147;-73
2023/09/16 04:32:16;;;;;;;7.70;6.70;;;13.10;99.90;;;;;;497556;239;28099;-73
2023/09/16 04:34:17;;;;;;;7.30;6.60;;;13.10;99.90;;;;;;497602;239;28052;-73
2023/09/16 04:36:19;;;;;;;7.40;6.70;;;13.10;99.90;;;;;;497495;239;28671;-73
2023/09/16 04:38:22;;;;;;;6.87;6.23;;;13.10;99.90;;;;;;497507;239;29384;-74
2023/09/16 04:40:24;;;;;;;6.63;5.97;;;13.00;99.90;;;;;;497530;239;28138;-74
2023/09/16 04:44:30;;;;;;;8.30;7.10;;;12.90;99.90;;;;;;492480;241;27050;-73
2023/09/16 04:46:37;;;;;;;8.57;7.67;;;13.00;99.90;;;;;;488789;243;28704;-73
2023/09/16 04:48:38;;;;;;;7.77;7.00;;;13.00;99.90;;;;;;488809;243;28205;-75
2023/09/16 04:50:43;;;;;;;8.70;7.80;;;12.90;99.90;;;;;;488786;243;28302;-73
2023/09/16 04:52:44;;;;;;;8.07;7.13;;;12.90;99.90;;;;;;488790;243;28204;-73
2023/09/16 04:54:53;;;;;;;8.20;7.30;;;12.90;99.90;;;;;;488804;243;28405;-73
2023/09/16 04:56:52;;;;;;;12.70;7.53;;;12.80;99.90;;;;;;488788;243;28238;-73
2023/09/16 04:58:57;;;;;;;8.63;7.47;;;12.80;99.90;;;;;;488776;243;28210;-73
2023/09/16 05:00:58;;;;;;;9.53;7.80;;;12.80;99.90;;;;;;488783;243;28088;-73
2023/09/16 05:03:00;;;;;;;8.80;7.90;;;12.90;99.90;;;;;;488764;243;28148;-73
2023/09/16 05:05:01;;;;;;;9.97;7.70;;;12.90;99.90;;;;;;488781;243;28227;-73
2023/09/16 05:07:09;;;;;;;7.73;6.93;;;12.90;99.90;;;;;;488800;243;28137;-73
2023/09/16 05:09:10;;;;;;;8.10;7.30;;;12.90;99.90;;;;;;488825;243;28098;-78
2023/09/16 05:11:12;;;;;;;8.47;7.67;;;12.90;99.90;;;;;;488810;243;28090;-74
2023/09/16 05:13:13;;;;;;;8.67;7.50;;;12.90;99.90;;;;;;488735;243;28656;-73
2023/09/16 05:15:21;;;;;;;9.03;7.53;;;12.80;99.90;;;;;;488790;243;28518;-73
2023/09/16 05:17:22;;;;;;;8.97;8.07;;;12.80;99.90;;;;;;488661;243;28932;-73
2023/09/16 05:19:31;;;;;;;11.00;8.13;;;12.80;99.90;;;;;;488792;243;28105;-75
2023/09/16 05:21:32;;;;;;;9.57;8.40;;;12.80;99.90;;;;;;488770;243;28144;-73
2023/09/16 05:23:45;;;;;;;9.10;7.57;;;12.90;99.90;;;;;;488799;243;28199;-73
2023/09/16 05:25:46;;;;;;;8.73;7.83;;;12.90;99.90;;;;;;488798;243;28072;-73
2023/09/16 05:27:47;;;;;;;10.83;8.40;;;12.90;99.90;;;;;;488724;243;28133;-74
2023/09/16 05:29:57;;;;;;;7.67;6.87;;;12.90;99.90;;;;;;488785;243;28589;-73
2023/09/16 05:31:58;;;;;;;8.50;7.43;;;12.90;99.90;;;;;;488774;243;28535;-73
2023/09/16 05:33:59;;;;;;;11.53;8.43;;;12.90;99.90;;;;;;488751;243;28149;-75
2023/09/16 05:36:01;;;;;;;7.73;6.93;;;13.00;99.90;;;;;;488793;243;29365;-73
2023/09/16 05:38:08;;;;;;;9.63;7.20;;;13.00;99.90;;;;;;486508;243;28604;-73
2023/09/16 05:40:09;;;;;;;8.57;7.33;;;13.00;99.90;;;;;;470372;253;28318;-73
2023/09/16 05:42:11;;;;;;;8.03;7.23;;;13.00;99.90;;;;;;470264;253;28291;-73
2023/09/16 05:44:12;;;;;;;7.27;6.50;;;13.00;99.90;;;;;;470317;253;28798;-74
2023/09/16 05:46:13;;;;;;;8.43;7.50;;;13.10;99.90;;;;;;470327;253;28702;-73
2023/09/16 05:48:14;;;;;;;7.73;6.93;;;13.10;99.90;;;;;;470387;253;28661;-74
2023/09/16 05:50:19;;;;;;;8.43;7.57;;;13.10;99.90;;;;;;470343;253;28212;-73
2023/09/16 05:52:20;;;;;;;7.83;7.00;;;13.10;99.90;;;;;;474103;249;28099;-74
2023/09/16 05:54:21;;;;;;;8.23;7.43;;;13.10;99.90;;;;;;476615;249;28304;-74
2023/09/16 05:56:23;;;;;;;7.03;6.33;;;13.20;99.90;;;;;;476617;249;28205;-74
2023/09/16 05:58:27;;;;;;;6.93;6.27;;;13.20;99.90;;;;;;476547;249;28170;-75
2023/09/16 06:00:28;;;;;;;8.43;7.10;;;13.20;99.90;;;;;;476605;249;28130;-73
2023/09/16 06:02:31;;;;;;;8.20;7.03;;;13.30;99.90;;;;;;476598;249;28597;-74
2023/09/16 06:04:32;;;;;;;8.23;7.40;;;13.30;99.90;;;;;;476585;249;28451;-73
2023/09/16 06:06:37;;;;;;;8.20;7.40;;;;;;;;;;476549;249;28179;-74
2023/09/16 06:08:39;;;;;;;7.27;6.57;;;13.30;99.90;;;;;;476618;249;26911;-74
2023/09/16 06:10:52;;;;;;;8.37;7.47;;;13.40;99.90;;;;;;476522;249;28840;-74
2023/09/16 06:12:53;;;;;;;7.73;6.93;;;13.40;99.90;;;;;;476536;249;28333;-74
2023/09/16 06:14:54;;;;;;;10.37;7.57;;;13.40;99.90;;;;;;476588;249;28215;-74
2023/09/16 06:16:56;;;;;;;7.77;6.97;;;13.50;99.90;;;;;;476583;249;28679;-74
2023/09/16 06:18:57;;;;;;;8.00;7.17;;;13.50;99.90;;;;;;476570;249;28809;-73
2023/09/16 06:20:58;;;;;;;11.23;7.13;;;13.50;99.90;;;;;;476549;249;28890;-72
2023/09/16 06:23:02;;;;;;;8.80;7.13;;;13.50;99.90;;;;;;476515;249;28163;-74
2023/09/16 06:25:01;;;;;;;8.57;7.27;;;13.60;99.90;;;;;;476561;249;28388;-74
2023/09/16 06:27:02;;;;;;;8.97;7.57;;;13.60;99.90;;;;;;477755;248;28195;-76
2023/09/16 06:29:03;;;;;;;9.53;8.37;;;13.70;99.90;;;;;;490201;240;28217;-74
2023/09/16 06:31:04;;;;;;;8.50;7.43;;;13.60;99.90;;;;;;490204;240;28455;-76
2023/09/16 06:33:12;;;;;;;8.97;7.10;;;13.70;99.90;;;;;;490219;240;28206;-73
2023/09/16 06:35:13;;;;;;;8.27;7.43;;;13.70;99.90;;;;;;490098;241;28482;-74
2023/09/16 06:37:20;;;;;;;8.43;7.50;;;13.80;99.90;;;;;;490193;240;28281;-73
2023/09/16 06:39:23;;;;;;;8.93;8.00;;;13.80;99.90;;;;;;490166;240;28264;-73
2023/09/16 06:41:30;;;;;;;9.13;8.13;;;13.80;99.90;;;;;;490207;240;28379;-73
2023/09/16 06:43:31;;;;;;;12.13;8.47;;;13.90;99.90;;;;;;490198;241;28563;-73
2023/09/16 06:45:34;;;;;;;8.83;7.93;;;14.00;99.90;;;;;;490177;240;28911;-75
2023/09/16 06:47:35;;;;;;;9.00;7.70;;;14.00;99.90;;;;;;490137;240;28780;-74
2023/09/16 06:49:44;;;;;;;11.00;8.30;;;14.10;99.90;;;;;;490157;240;28845;-74
2023/09/16 06:51:45;;;;;;;11.70;7.77;;;14.10;99.90;;;;;;490217;240;28473;-75
2023/09/16 06:53:58;;;;;;;7.80;7.03;;;14.20;99.90;;;;;;490195;240;29305;-75
2023/09/16 06:56:00;;;;;;;9.47;8.30;;;14.30;99.90;;;;;;490169;240;28620;-74
2023/09/16 06:58:04;;;;;;;10.60;9.17;;;14.40;99.90;;;;;;490225;240;28313;-75
2023/09/16 07:00:03;;;;;;;9.47;8.47;;;14.40;99.90;;;;;;490202;240;28871;-76
2023/09/16 07:02:11;;;;;;;9.97;8.70;;;14.50;99.90;;;;;;490147;240;28815;-75
2023/09/16 07:04:12;;;;;;;10.37;8.20;;;14.50;99.90;;;;;;490225;240;28494;-74
2023/09/16 07:06:13;;;;;;;9.57;8.30;;;14.60;99.90;;;;;;490227;240;28492;-73
2023/09/16 07:10:44;;;;;;;9.00;7.53;;;14.70;99.90;;;;;;490211;240;29247;-73
2023/09/16 07:15:17;;;;;;;10.13;8.40;;;14.90;99.90;;;;;;490233;240;28795;-75
2023/09/16 07:17:22;;;;;;;10.13;9.03;;;15.00;99.90;;;;;;490208;240;28532;-74
2023/09/16 07:19:23;;;;;;;10.67;8.80;;;15.00;99.90;;;;;;490203;240;28817;-73
2023/09/16 07:21:24;;;;;;;9.83;8.07;;;15.10;99.90;;;;;;490154;240;29270;-73
2023/09/16 07:23:38;;;;;;;8.67;7.83;;;15.20;99.90;;;;;;490185;240;28796;-77
2023/09/16 07:25:39;;;;;;;8.80;7.90;;;15.20;99.90;;;;;;490205;240;28816;-73
2023/09/16 07:27:40;;;;;;;8.20;7.40;;;15.30;99.90;;;;;;490183;240;28826;-75
2023/09/16 07:29:42;;;;;;;8.70;7.80;;;15.30;99.90;;;;;;490230;240;28805;-75
2023/09/16 07:31:43;;;;;;;8.77;7.97;;;15.40;99.90;;;;;;490123;241;28818;-75
2023/09/16 07:33:44;;;;;;;8.70;7.80;;;15.50;99.90;;;;;;490024;240;29431;-75
2023/09/16 07:35:45;;;;;;;18.10;8.70;;;15.60;99.90;;;;;;490046;240;28830;-73
2023/09/16 07:37:47;;;;;;;12.23;8.50;;;15.70;99.90;;;;;;489981;241;29384;-76
2023/09/16 07:39:50;;;;;;;11.10;8.43;;;15.80;99.90;;;;;;490180;240;29241;-79
2023/09/16 07:41:51;;;;;;;12.00;8.57;;;16.00;99.90;;;;;;490314;240;28840;-78
2023/09/16 07:43:52;;;;;;;9.03;8.13;;;16.00;99.90;;;;;;490239;240;28797;-76
2023/09/16 07:45:54;;;;;;;11.20;8.07;;;16.10;99.90;;;;;;490205;240;29315;-76
2023/09/16 07:47:55;;;;;;;9.77;7.70;;;16.20;99.90;;;;;;490123;240;29340;-75
2023/09/16 07:49:56;;;;;;;9.43;8.43;;;16.30;99.90;;;;;;490152;240;29217;-70
2023/09/16 07:51:57;;;;;;;10.10;8.07;;;16.40;99.90;;;;;;490117;240;28807;-71
2023/09/16 07:53:59;;;;;;;10.53;8.17;;;16.50;99.90;;;;;;490109;240;28825;-72
2023/09/16 07:56:00;;;;;;;11.47;9.07;;;16.70;99.90;;;;;;490171;240;28922;-77
2023/09/16 07:58:01;;;;;;;11.00;7.70;;;16.80;99.90;;;;;;490133;241;28904;-73
2023/09/16 08:00:07;;;;;;;12.07;7.50;;;16.80;99.90;;;;;;490191;240;28781;-71
2023/09/16 08:02:04;;;;;;;8.73;7.83;;;16.90;99.90;;;;;;490160;240;28826;-71
2023/09/16 08:04:05;;;;;;;9.63;7.43;;;16.90;99.90;;;;;;490118;240;28929;-71
2023/09/16 08:06:06;;;;;;;11.67;7.97;;;16.90;99.90;;;;;;490116;240;29193;-71
2023/09/16 08:08:07;;;;;;;9.63;7.87;;;17.00;99.90;;;;;;490081;241;29399;-72
2023/09/16 08:10:09;;;;;;;11.63;8.27;;;17.00;99.90;;;;;;490101;240;29908;-71
2023/09/16 08:12:10;;;;;;;7.77;6.97;;;17.10;99.90;;;;;;490117;240;28822;-72
2023/09/16 08:14:11;;;;;;;8.63;7.73;;;17.30;99.90;;;;;;490093;240;28910;-73
2023/09/16 08:16:12;;;;;;;8.47;7.57;;;17.50;99.90;;;;;;490108;240;28780;-72
2023/09/16 08:18:14;;;;;;;8.90;7.40;;;17.50;99.90;;;;;;490108;240;28962;-72
2023/09/16 08:20:18;;;;;;;7.97;6.93;;;17.50;99.90;;;;;;490083;240;28713;-72
2023/09/16 08:22:16;;;;;;;8.63;7.53;;;17.60;99.90;;;;;;490167;240;28791;-72
2023/09/16 08:24:17;;;;;;;7.30;6.60;;;17.70;99.90;;;;;;490090;240;28824;-72
2023/09/16 08:26:19;;;;;;;8.20;6.97;;;17.70;99.90;;;;;;490075;240;28683;-72
2023/09/16 08:28:21;;;;;;;7.67;6.87;;;17.90;99.90;;;;;;490061;240;28968;-71
2023/09/16 08:30:22;;;;;;;8.30;7.50;;;18.00;99.90;;;;;;490121;240;28804;-73
2023/09/16 08:32:28;;;;;;;7.60;6.80;;;18.10;99.90;;;;;;490092;240;28832;-74
2023/09/16 08:34:25;;;;;;;8.40;7.30;;;18.10;99.90;;;;;;490167;240;29295;-73
2023/09/16 08:36:26;;;;;;;8.97;7.27;;;18.20;99.90;;;;;;490141;240;30075;-74
2023/09/16 08:38:27;;;;;;;7.20;6.50;;;18.40;99.90;;;;;;490075;240;30025;-72
2023/09/16 08:40:31;;;;;;;7.93;7.00;;;18.40;99.90;;;;;;490130;240;28867;-74
2023/09/16 08:42:30;;;;;;;7.63;6.90;;;18.50;99.90;;;;;;490155;240;28852;-73
2023/09/16 08:44:31;;;;;;;8.60;7.00;;;18.70;99.90;;;;;;490090;240;28901;-73
2023/09/16 08:46:32;;;;;;;7.03;6.40;;;18.90;99.90;;;;;;490075;240;28827;-72
2023/09/16 08:48:36;;;;;;;10.47;8.50;;;18.90;99.90;;;;;;490087;240;29171;-75
2023/09/16 08:50:38;;;;;;;7.77;7.00;;;19.00;99.90;;;;;;490119;240;29228;-74
2023/09/16 08:52:39;;;;;;;7.03;6.37;;;19.20;99.90;;;;;;490111;241;28795;-74
2023/09/16 08:54:40;;;;;;;8.87;7.00;;;19.40;99.90;;;;;;490095;240;29195;-74
2023/09/16 08:56:41;;;;;;;7.53;6.73;;;19.30;99.90;;;;;;490058;240;28903;-72
2023/09/16 08:58:43;;;;;;;7.50;6.70;;;19.20;99.90;;;;;;490099;240;28876;-74
2023/09/16 09:00:44;;;;;;;8.87;7.00;;;19.40;99.90;;;;;;490098;240;28818;-74
2023/09/16 09:02:45;;;;;;;7.43;6.73;;;20.00;99.90;;;;;;490109;240;28792;-74
2023/09/16 09:04:46;;;;;;;6.60;6.00;;;20.20;99.90;;;;;;490049;241;28802;-73
2023/09/16 09:06:48;;;;;;;9.30;6.67;;;20.00;99.90;;;;;;490095;240;28834;-72
2023/09/16 09:08:49;;;;;;;8.07;6.97;;;19.90;99.90;;;;;;490060;240;28861;-73
2023/09/16 09:10:50;;;;;;;7.20;5.77;;;19.80;99.90;;;;;;490025;240;29287;-73
2023/09/16 09:12:51;;;;;;;7.80;6.70;;;19.60;99.90;;;;;;490070;240;29288;-73
2023/09/16 09:14:53;;;;;;;7.73;6.10;;;19.80;99.90;;;;;;490059;240;29377;-73
2023/09/16 09:16:54;;;;;;;7.47;6.67;;;20.00;99.90;;;;;;490101;240;28830;-74
2023/09/16 09:18:55;;;;;;;5.90;5.40;;;19.90;99.90;;;;;;490098;240;28778;-73
2023/09/16 09:20:56;;;;;;;5.73;5.27;;;20.00;99.90;;;;;;490088;240;28800;-73
2023/09/16 09:22:59;;;;;;;6.73;6.10;;;20.20;99.90;;;;;;490064;240;28778;-73
2023/09/16 09:25:00;;;;;;;6.10;5.50;;;20.30;99.90;;;;;;490077;241;29281;-74
2023/09/16 09:27:02;;;;;;;7.33;6.63;;;20.20;99.90;;;;;;490091;240;29395;-73
2023/09/16 09:29:09;;;;;;;6.03;5.53;;;20.20;99.90;;;;;;490007;241;28890;-73
2023/09/16 09:31:04;;;;;;;7.90;6.50;;;20.20;99.90;;;;;;490071;241;28922;-74
2023/09/16 09:33:05;;;;;;;5.80;5.30;;;20.30;99.90;;;;;;490069;240;28921;-72
2023/09/16 09:35:07;;;;;;;8.13;6.20;;;20.40;99.90;;;;;;490040;240;28896;-73
2023/09/16 09:37:08;;;;;;;6.30;5.70;;;20.40;99.90;;;;;;490077;240;28857;-73
2023/09/16 09:39:09;;;;;;;7.00;6.10;;;20.50;99.90;;;;;;490082;240;28880;-74
2023/09/16 09:41:10;;;;;;;7.27;6.57;;;20.60;99.90;;;;;;490107;240;28822;-74
2023/09/16 09:43:12;;;;;;;6.70;6.00;;;20.60;99.90;;;;;;490055;240;28924;-73
2023/09/16 09:45:13;;;;;;;6.97;5.73;;;20.80;99.90;;;;;;490083;240;28808;-73
2023/09/16 09:47:15;;;;;;;6.27;5.67;;;20.80;99.90;;;;;;490085;240;29542;-73
2023/09/16 09:49:15;;;;;;;5.70;5.20;;;20.70;99.90;;;;;;490110;240;29222;-73
2023/09/16 09:51:17;;;;;;;6.50;5.90;;;20.90;99.90;;;;;;490104;240;29197;-73
2023/09/16 09:53:18;;;;;;;6.00;5.50;;;20.90;99.90;;;;;;490074;240;28759;-73
2023/09/16 09:55:19;;;;;;;6.10;5.13;;;21.00;99.90;;;;;;490095;240;28805;-73
2023/09/16 09:57:20;;;;;;;5.43;4.93;;;21.00;99.90;;;;;;489973;241;28963;-75
2023/09/16 09:59:22;;;;;;;5.93;5.43;;;20.90;99.90;;;;;;490043;241;28913;-73
2023/09/16 10:01:23;;;;;;;6.47;5.87;;;21.00;99.90;;;;;;490092;240;28720;-74
2023/09/16 10:03:24;;;;;;;6.37;5.40;;;21.10;99.90;;;;;;490057;240;28896;-73
2023/09/16 10:05:25;;;;;;;6.17;5.53;;;21.10;99.90;;;;;;490062;240;28816;-73
2023/09/16 10:07:27;;;;;;;5.63;5.13;;;21.10;99.90;;;;;;490086;240;28878;-74
2023/09/16 10:09:28;;;;;;;6.00;5.50;;;21.20;99.90;;;;;;490094;240;28819;-73
2023/09/16 10:11:32;;;;;;;5.30;4.80;;;21.30;99.90;;;;;;490085;240;29288;-73
2023/09/16 10:13:30;;;;;;;5.80;5.30;;;21.30;99.90;;;;;;490099;240;30053;-73
2023/09/16 10:15:32;;;;;;;5.53;5.10;;;21.30;99.90;;;;;;490085;240;29271;-73
2023/09/16 10:17:33;;;;;;;5.77;5.20;;;21.30;99.90;;;;;;490076;240;28794;-75
2023/09/16 10:19:34;;;;;;;5.50;5.00;;;21.40;99.90;;;;;;490067;241;28757;-73
2023/09/16 10:21:37;;;;;;;4.50;4.10;;;21.60;99.90;;;;;;490062;240;28820;-73
2023/09/16 10:23:37;;;;;;;4.93;4.43;;;21.70;99.90;;;;;;490125;240;28847;-74
2023/09/16 10:25:38;;;;;;;4.83;4.43;;;22.00;99.90;;;;;;490052;241;28765;-74
2023/09/16 10:27:39;;;;;;;4.90;4.40;;;22.10;99.90;;;;;;490005;241;28728;-73
2023/09/16 10:29:40;;;;;;;4.33;3.90;;;21.90;99.90;;;;;;491708;239;28854;-73
2023/09/16 10:31:42;;;;;;;5.00;4.47;;;21.90;99.90;;;;;;492920;241;28854;-73
2023/09/16 10:33:43;;;;;;;4.57;4.20;;;21.90;99.90;;;;;;492871;241;29343;-75
2023/09/16 10:35:44;;;;;;;4.53;4.13;;;21.90;99.90;;;;;;492741;241;29387;-73
2023/09/16 10:37:46;;;;;;;4.17;3.87;;;21.90;99.90;;;;;;492753;241;29374;-73
2023/09/16 10:39:47;;;;;;;4.87;4.47;;;21.90;99.90;;;;;;492746;241;28817;-73
2023/09/16 10:41:48;;;;;;;5.10;4.50;;;22.00;99.90;;;;;;492829;241;28797;-73
2023/09/16 10:43:49;;;;;;;4.90;4.43;;;22.00;99.90;;;;;;492769;241;28855;-74
2023/09/16 10:45:51;;;;;;;4.23;3.87;;;21.90;99.90;;;;;;492751;241;28936;-73
2023/09/16 10:47:52;;;;;;;4.50;4.10;;;22.00;99.90;;;;;;492772;241;28865;-74
2023/09/16 10:49:53;;;;;;;5.00;3.80;;;22.00;99.90;;;;;;492478;241;29240;-74
2023/09/16 10:51:54;;;;;;;4.20;3.90;;;22.00;99.90;;;;;;492805;241;28818;-73